createdAt,value
2023-03-19T00:01:20.410Z,23.80
2023-03-19T00:04:09.621Z,23.60
2023-03-19T00:06:56.821Z,24.00
2023-03-19T00:09:44.794Z,25.50
2023-03-19T00:12:31.534Z,25.20
2023-03-19T00:15:18.310Z,25.50
2023-03-19T00:18:06.521Z,23.70
2023-03-19T00:20:52.984Z,24.00
2023-03-19T00:23:39.878Z,22.40
2023-03-19T00:26:28.441Z,23.70
2023-03-19T00:29:15.105Z,24.10
2023-03-19T00:32:02.502Z,23.20
2023-03-19T00:34:48.980Z,25.10
2023-03-19T00:37:36.465Z,24.40
2023-03-19T00:40:23.126Z,24.00
2023-03-19T00:43:09.914Z,24.00
2023-03-19T00:45:56.738Z,24.60
2023-03-19T00:48:43.479Z,25.10
2023-03-19T00:51:30.626Z,24.10
2023-03-19T00:54:16.987Z,23.70
2023-03-19T00:57:03.663Z,26.20
2023-03-19T00:59:50.325Z,23.90
2023-03-19T01:02:37.177Z,25.20
2023-03-19T01:05:23.822Z,22.70
2023-03-19T01:08:10.655Z,24.00
2023-03-19T01:10:57.700Z,25.30
2023-03-19T01:13:44.643Z,23.70
2023-03-19T01:16:31.512Z,23.70
2023-03-19T01:19:18.163Z,25.00
2023-03-19T01:22:05.275Z,22.00
2023-03-19T01:24:52.351Z,21.90
2023-03-19T01:27:40.218Z,21.20
2023-03-19T01:30:26.744Z,22.10
2023-03-19T01:33:14.701Z,23.30
2023-03-19T01:36:05.647Z,22.20
2023-03-19T01:38:52.308Z,21.60
2023-03-19T01:41:38.741Z,22.00
2023-03-19T01:44:26.722Z,21.60
2023-03-19T01:47:27.544Z,21.80
2023-03-19T01:50:25.924Z,22.70
2023-03-19T01:53:15.873Z,21.70
2023-03-19T01:56:16.189Z,20.70
2023-03-19T01:59:12.998Z,22.30
2023-03-19T02:02:05.712Z,22.80
2023-03-19T02:04:58.945Z,21.80
2023-03-19T02:07:46.122Z,21.60
2023-03-19T02:10:34.922Z,23.50
2023-03-19T02:13:23.249Z,20.90
2023-03-19T02:16:10.704Z,19.80
2023-03-19T02:18:58.029Z,21.00
2023-03-19T02:21:44.728Z,19.60
2023-03-19T02:24:42.353Z,18.90
2023-03-19T02:27:28.756Z,21.50
2023-03-19T02:30:27.007Z,23.20
2023-03-19T02:33:16.132Z,20.50
2023-03-19T02:36:05.440Z,21.80
2023-03-19T02:38:53.694Z,22.20
2023-03-19T02:46:04.317Z,21.60
2023-03-19T02:48:50.763Z,20.20
2023-03-19T02:56:01.835Z,23.40
2023-03-19T02:58:48.249Z,28.40
2023-03-19T03:05:48.955Z,25.60
2023-03-19T03:08:36.818Z,19.80
2023-03-19T03:11:23.984Z,23.50
2023-03-19T03:14:11.033Z,21.40
2023-03-19T03:16:58.927Z,23.00
2023-03-19T03:19:45.812Z,21.60
2023-03-19T03:22:32.771Z,19.60
2023-03-19T03:25:19.435Z,23.10
2023-03-19T03:28:06.319Z,20.90
2023-03-19T03:31:02.342Z,20.60
2023-03-19T03:33:49.249Z,20.20
2023-03-19T03:36:36.930Z,21.70
2023-03-19T03:39:23.936Z,17.80
2023-03-19T03:42:10.448Z,22.80
2023-03-19T03:44:57.347Z,21.50
2023-03-19T03:47:44.004Z,19.00
2023-03-19T03:50:30.677Z,20.30
2023-03-19T03:53:17.186Z,19.80
2023-03-19T03:56:03.919Z,18.30
2023-03-19T03:58:51.352Z,19.70
2023-03-19T04:01:38.061Z,19.80
2023-03-19T04:04:24.743Z,19.10
2023-03-19T04:07:11.550Z,19.70
2023-03-19T04:09:59.303Z,19.70
2023-03-19T04:12:49.773Z,20.90
2023-03-19T04:15:36.127Z,19.80
2023-03-19T04:18:22.771Z,19.30
2023-03-19T04:21:09.613Z,21.00
2023-03-19T04:23:56.293Z,19.50
2023-03-19T04:26:42.999Z,18.90
2023-03-19T04:29:29.707Z,20.60
2023-03-19T04:32:16.761Z,21.60
2023-03-19T04:35:04.360Z,21.60
2023-03-19T04:37:50.951Z,20.20
2023-03-19T04:40:37.419Z,20.50
2023-03-19T04:43:24.708Z,20.40
2023-03-19T04:46:11.789Z,22.00
2023-03-19T04:48:59.816Z,20.30
2023-03-19T04:51:46.587Z,18.60
2023-03-19T04:54:34.030Z,22.70
2023-03-19T04:57:21.363Z,18.80
2023-03-19T05:00:08.920Z,20.70
2023-03-19T05:02:55.924Z,20.50
2023-03-19T05:05:43.385Z,20.40
2023-03-19T05:08:29.956Z,19.90
2023-03-19T05:11:16.772Z,22.50
2023-03-19T05:14:22.194Z,21.30
2023-03-19T05:17:11.259Z,21.30
2023-03-19T05:19:58.250Z,20.60
2023-03-19T05:22:44.717Z,20.30
2023-03-19T05:25:31.357Z,19.10
2023-03-19T05:28:17.924Z,19.50
2023-03-19T05:31:05.130Z,22.50
2023-03-19T05:33:52.534Z,21.40
2023-03-19T05:36:39.262Z,20.70
2023-03-19T05:39:26.109Z,20.90
2023-03-19T05:42:13.467Z,20.00
2023-03-19T05:45:00.049Z,20.60
2023-03-19T05:47:49.180Z,21.10
2023-03-19T05:50:36.477Z,21.80
2023-03-19T05:53:24.066Z,21.60
2023-03-19T05:56:11.245Z,20.10
2023-03-19T05:58:58.510Z,21.80
2023-03-19T06:01:45.692Z,19.50
2023-03-19T06:04:33.447Z,18.90
2023-03-19T06:07:20.673Z,22.90
2023-03-19T06:10:08.650Z,21.10
2023-03-19T06:12:56.129Z,21.50
2023-03-19T06:15:43.915Z,20.10
2023-03-19T06:18:32.226Z,19.60
2023-03-19T06:21:19.803Z,20.00
2023-03-19T06:24:08.086Z,19.60
2023-03-19T06:26:57.585Z,19.10
2023-03-19T06:29:44.713Z,19.80
2023-03-19T06:32:32.782Z,19.70
2023-03-19T06:35:20.002Z,21.30
2023-03-19T06:38:07.633Z,21.10
2023-03-19T06:40:56.157Z,22.00
2023-03-19T06:43:43.413Z,20.40
2023-03-19T06:46:30.222Z,19.40
2023-03-19T06:49:18.319Z,19.30
2023-03-19T06:52:06.215Z,18.70
2023-03-19T06:54:53.878Z,20.00
2023-03-19T06:57:41.713Z,19.50
2023-03-19T07:00:28.830Z,20.30
2023-03-19T07:03:16.904Z,18.60
2023-03-19T07:06:03.730Z,19.40
2023-03-19T07:08:50.444Z,21.60
2023-03-19T07:13:40.436Z,20.30
2023-03-19T07:16:27.670Z,20.60
2023-03-19T07:19:14.897Z,19.30
2023-03-19T07:22:02.157Z,20.00
2023-03-19T07:24:49.428Z,19.20
2023-03-19T07:27:36.433Z,19.30
2023-03-19T07:30:24.358Z,19.80
2023-03-19T07:33:11.948Z,19.70
2023-03-19T07:37:49.422Z,18.70
2023-03-19T07:40:40.037Z,19.00
2023-03-19T07:43:33.188Z,21.20
2023-03-19T07:46:19.720Z,19.90
2023-03-19T07:49:11.098Z,19.90
2023-03-19T07:52:10.458Z,22.80
2023-03-19T07:56:08.318Z,17.60
2023-03-19T08:00:11.061Z,18.10
2023-03-19T08:03:44.421Z,17.70
2023-03-19T08:06:31.259Z,19.60
2023-03-19T08:09:18.359Z,20.10
2023-03-19T08:12:06.734Z,18.70
2023-03-19T08:14:53.599Z,20.30
2023-03-19T08:18:08.482Z,20.00
2023-03-19T08:21:30.069Z,17.20
2023-03-19T08:25:32.550Z,18.80
2023-03-19T08:29:28.350Z,18.40
2023-03-19T08:32:17.733Z,19.50
2023-03-19T08:35:06.312Z,18.50
2023-03-19T08:37:54.697Z,17.50
2023-03-19T08:40:41.535Z,17.10
2023-03-19T08:43:41.101Z,18.60
2023-03-19T08:47:37.957Z,15.80
2023-03-19T08:51:56.126Z,17.00
2023-03-19T08:55:20.405Z,17.10
2023-03-19T08:58:51.426Z,15.00
2023-03-19T09:02:50.324Z,14.70
2023-03-19T09:06:51.669Z,15.20
2023-03-19T09:10:46.112Z,15.90
2023-03-19T09:14:01.711Z,14.80
2023-03-19T09:18:25.564Z,16.00
2023-03-19T09:21:41.459Z,14.10
2023-03-19T09:25:18.637Z,17.90
2023-03-19T09:28:52.321Z,15.50
2023-03-19T09:44:03.073Z,15.60
2023-03-19T09:47:31.416Z,15.90
2023-03-19T09:51:59.375Z,15.30
2023-03-19T10:05:54.323Z,13.00
2023-03-19T10:09:13.721Z,13.00
2023-03-19T10:13:16.170Z,10.00
2023-03-19T10:16:40.283Z,10.90
2023-03-19T10:19:58.433Z,11.90
2023-03-19T10:34:34.722Z,9.10
2023-03-19T10:37:38.441Z,9.30
2023-03-19T10:41:45.673Z,9.60
2023-03-19T10:55:26.168Z,8.50
2023-03-19T10:58:41.091Z,8.80
2023-03-19T11:14:27.642Z,8.80
2023-03-19T11:28:26.034Z,8.20
2023-03-19T11:58:54.413Z,8.50
2023-03-19T12:02:38.023Z,7.90
2023-03-19T12:07:00.625Z,9.20
2023-03-19T12:20:54.809Z,8.50
2023-03-19T12:24:38.648Z,7.50
2023-03-19T12:38:21.166Z,8.90
2023-03-19T12:41:12.811Z,8.70
2023-03-19T12:44:38.806Z,9.20
2023-03-19T12:47:40.110Z,10.20
2023-03-19T12:52:59.724Z,10.10
2023-03-19T12:56:00.919Z,9.20
2023-03-19T12:58:58.840Z,9.30
2023-03-19T13:01:54.992Z,9.70
2023-03-19T13:07:24.731Z,8.40
2023-03-19T13:11:10.991Z,10.20
2023-03-19T13:14:38.646Z,10.00
2023-03-19T13:17:41.295Z,8.80
2023-03-19T13:20:59.568Z,9.90
2023-03-19T13:23:53.708Z,11.50
2023-03-19T13:26:41.478Z,10.70
2023-03-19T13:29:39.617Z,9.70
2023-03-19T13:32:39.262Z,9.20
2023-03-19T13:35:35.206Z,8.70
2023-03-19T13:39:14.224Z,9.20
2023-03-19T13:43:30.916Z,10.10
2023-03-19T13:46:17.849Z,10.20
2023-03-19T13:49:21.276Z,8.20
2023-03-19T13:52:11.942Z,9.20
2023-03-19T13:55:30.294Z,10.40
2023-03-19T13:59:03.980Z,8.80
2023-03-19T14:01:51.159Z,9.10
2023-03-19T14:04:38.645Z,8.20
2023-03-19T14:07:29.097Z,9.20
2023-03-19T14:10:27.214Z,8.40
2023-03-19T14:13:28.669Z,9.00
2023-03-19T14:16:29.948Z,8.20
2023-03-19T14:19:21.174Z,10.20
2023-03-19T14:22:39.095Z,10.90
2023-03-19T14:25:48.083Z,9.30
2023-03-19T14:28:45.588Z,8.90
2023-03-19T14:32:07.053Z,8.90
2023-03-19T14:34:57.030Z,9.30
2023-03-19T14:37:49.344Z,8.80
2023-03-19T14:40:45.108Z,7.50
2023-03-19T14:44:08.397Z,8.80
2023-03-19T14:47:33.783Z,8.40
2023-03-19T14:50:33.911Z,10.50
2023-03-19T14:53:39.846Z,8.90
2023-03-19T14:56:32.557Z,9.70
2023-03-19T14:59:36.970Z,9.10
2023-03-19T15:02:42.619Z,8.80
2023-03-19T15:05:36.799Z,8.40
2023-03-19T15:08:24.016Z,8.10
2023-03-19T15:11:13.482Z,9.50
2023-03-19T15:14:03.161Z,8.10
2023-03-19T15:17:15.578Z,7.70
2023-03-19T15:20:06.307Z,7.70
2023-03-19T15:23:13.353Z,7.90
2023-03-19T15:26:14.540Z,8.20
2023-03-19T15:29:04.755Z,7.80
2023-03-19T15:32:04.791Z,9.50
2023-03-19T15:35:03.611Z,9.40
2023-03-19T15:38:00.305Z,8.40
2023-03-19T15:40:52.059Z,8.40
2023-03-19T15:43:41.600Z,8.60
2023-03-19T15:46:33.538Z,7.90
2023-03-19T15:49:33.654Z,7.70
2023-03-19T15:52:21.203Z,10.50
2023-03-19T15:55:11.590Z,9.00
2023-03-19T15:58:08.666Z,9.90
2023-03-19T16:00:56.447Z,10.40
2023-03-19T16:03:46.426Z,9.30
2023-03-19T16:12:42.776Z,9.90
2023-03-19T16:15:46.175Z,10.20
2023-03-19T16:18:53.187Z,11.80
2023-03-19T16:21:43.126Z,8.90
2023-03-19T16:24:39.584Z,10.00
2023-03-19T16:27:37.083Z,9.50
2023-03-19T16:30:27.666Z,10.90
2023-03-19T16:33:15.110Z,9.60
2023-03-19T16:36:03.237Z,8.60
2023-03-19T16:39:23.424Z,8.40
2023-03-19T16:42:13.117Z,8.70
2023-03-19T16:45:15.662Z,9.10
2023-03-19T16:48:07.085Z,8.60
2023-03-19T16:50:53.555Z,10.80
2023-03-19T16:53:40.604Z,7.90
2023-03-19T16:56:31.305Z,7.90
2023-03-19T17:08:55.880Z,9.50
2023-03-19T17:11:43.436Z,10.00
2023-03-19T17:14:31.371Z,10.30
2023-03-19T17:17:20.659Z,10.80
2023-03-19T17:20:21.010Z,10.20
2023-03-19T17:23:14.345Z,12.60
2023-03-19T17:26:28.128Z,9.60
2023-03-19T17:29:14.492Z,11.60
2023-03-19T17:32:05.339Z,15.00
2023-03-19T17:34:52.253Z,13.90
2023-03-19T17:37:41.513Z,10.50
2023-03-19T17:40:35.037Z,16.40
2023-03-19T17:43:22.253Z,16.90
2023-03-19T17:46:15.204Z,14.60
2023-03-19T17:49:04.855Z,19.80
2023-03-19T17:51:52.072Z,22.50
2023-03-19T17:54:39.132Z,20.50
2023-03-19T17:57:27.135Z,23.20
2023-03-19T18:00:20.765Z,21.50
2023-03-19T18:03:14.093Z,22.10
2023-03-19T18:06:05.627Z,20.70
2023-03-19T18:08:52.550Z,18.00
2023-03-19T18:11:40.558Z,18.70
2023-03-19T18:14:27.001Z,20.70
2023-03-19T18:17:20.881Z,25.00
2023-03-19T18:20:13.342Z,92.20
2023-03-19T18:23:06.382Z,20.70
2023-03-19T18:25:53.203Z,22.70
2023-03-19T18:28:40.347Z,23.30
2023-03-19T18:31:31.889Z,23.20
2023-03-19T18:34:19.670Z,22.20
2023-03-19T18:37:06.266Z,20.10
2023-03-19T18:43:06.100Z,34.40
2023-03-19T18:45:54.325Z,27.40
2023-03-19T18:48:42.381Z,30.00
2023-03-19T18:51:29.227Z,29.70
2023-03-19T18:54:16.051Z,30.10
2023-03-19T18:57:03.110Z,28.70
2023-03-19T18:59:49.810Z,40.50
2023-03-19T19:02:38.343Z,31.80
2023-03-19T19:05:31.482Z,34.20
2023-03-19T19:08:20.850Z,30.80
2023-03-19T19:11:09.070Z,33.50
2023-03-19T19:14:03.252Z,31.40
2023-03-19T19:16:51.314Z,30.30
2023-03-19T19:19:42.926Z,35.20
2023-03-19T19:22:43.726Z,37.60
2023-03-19T19:25:30.617Z,42.40
2023-03-19T19:28:28.390Z,39.50
2023-03-19T19:31:26.758Z,33.60
2023-03-19T19:34:15.645Z,32.30
2023-03-19T19:37:06.026Z,33.40
2023-03-19T19:39:57.090Z,33.60
2023-03-19T19:42:48.796Z,33.90
2023-03-19T19:45:39.972Z,38.60
2023-03-19T19:48:35.616Z,36.50
2023-03-19T19:57:42.232Z,37.10
2023-03-19T20:00:35.817Z,34.00
2023-03-19T20:03:39.513Z,34.70
2023-03-19T20:06:28.665Z,33.80
2023-03-19T20:09:16.862Z,35.50
2023-03-19T20:12:03.842Z,36.20
2023-03-19T20:17:54.126Z,39.00
2023-03-19T20:20:40.781Z,38.40
2023-03-19T20:23:29.114Z,39.90
2023-03-19T20:26:19.630Z,40.70
2023-03-19T20:29:06.092Z,38.80
2023-03-19T20:31:53.106Z,41.20
2023-03-19T20:34:40.243Z,41.50
2023-03-19T20:37:27.513Z,38.10
2023-03-19T20:40:18.132Z,41.00
2023-03-19T20:43:07.781Z,41.40
2023-03-19T20:45:57.032Z,42.20
2023-03-19T20:48:43.897Z,39.40
2023-03-19T20:51:31.876Z,38.40
2023-03-19T20:54:18.799Z,36.20
2023-03-19T20:57:05.267Z,34.00
2023-03-19T20:59:52.187Z,34.80
2023-03-19T21:02:38.945Z,37.50
2023-03-19T21:05:35.268Z,38.30
2023-03-19T21:08:48.860Z,39.90
2023-03-19T21:11:41.997Z,36.00
2023-03-19T21:14:28.691Z,36.20
2023-03-19T21:17:15.536Z,34.10
2023-03-19T21:20:02.165Z,37.70
2023-03-19T21:22:54.088Z,37.10
2023-03-19T21:25:42.718Z,32.90
2023-03-19T21:28:34.996Z,32.80
2023-03-19T21:31:21.754Z,36.10
2023-03-19T21:34:13.691Z,33.90
2023-03-19T21:37:00.743Z,34.10
2023-03-19T21:39:48.096Z,33.30
2023-03-19T21:42:36.712Z,33.90
2023-03-19T21:45:29.116Z,31.90
2023-03-19T21:48:25.087Z,30.00
2023-03-19T21:51:16.732Z,34.70
2023-03-19T21:54:03.078Z,33.80
2023-03-19T21:56:49.877Z,32.40
2023-03-19T21:59:36.613Z,34.50
2023-03-19T22:02:26.164Z,31.40
2023-03-19T22:05:31.212Z,29.70
2023-03-19T22:08:20.508Z,32.80
2023-03-19T22:11:18.563Z,30.80
2023-03-19T22:14:18.000Z,33.50
2023-03-19T22:17:05.786Z,32.30
2023-03-19T22:19:52.737Z,31.90
2023-03-19T22:22:40.281Z,32.80
2023-03-19T22:25:31.551Z,34.60
2023-03-19T22:28:31.606Z,37.00
2023-03-19T22:31:18.248Z,36.00
2023-03-19T22:34:04.678Z,35.30
2023-03-19T22:36:51.612Z,33.20
2023-03-19T22:39:37.815Z,36.10
2023-03-19T22:42:26.360Z,33.00
2023-03-19T22:45:32.150Z,35.20
2023-03-19T22:48:20.140Z,34.10
2023-03-19T22:51:08.136Z,33.70
2023-03-19T22:53:55.541Z,32.00
2023-03-19T22:56:42.091Z,34.10
2023-03-19T22:59:28.586Z,33.20
2023-03-19T23:02:16.467Z,35.40
2023-03-19T23:05:32.515Z,34.50
2023-03-19T23:08:19.167Z,33.80
2023-03-19T23:11:05.933Z,37.00
2023-03-19T23:13:53.253Z,37.70
2023-03-19T23:16:45.812Z,34.20
2023-03-19T23:19:38.467Z,36.20
2023-03-19T23:22:25.108Z,33.60
2023-03-19T23:25:26.255Z,35.10
2023-03-19T23:28:22.647Z,35.80
2023-03-19T23:31:10.362Z,36.40
2023-03-19T23:33:56.971Z,35.40
2023-03-19T23:36:44.024Z,37.50
2023-03-19T23:39:30.529Z,38.90
2023-03-19T23:42:27.754Z,35.70
2023-03-19T23:45:38.031Z,36.80
2023-03-19T23:48:28.418Z,37.60
2023-03-19T23:51:17.232Z,38.30
2023-03-19T23:54:03.884Z,39.20
2023-03-19T23:56:52.172Z,36.50
2023-03-19T23:59:41.817Z,36.10
